Time;durP1;ratioP1;P1;durP2;ratioP2;P2;SDS_P1;SDS_P2;PMS_P1;PMS_P2;Temp;Humidity;BMP_temperature;BMP_pressure;BME280_temperature;BME280_humidity;BME280_pressure;Samples;Min_cycle;Max_cycle;Signal;HPM_P1;HPM_P2
2022/12/29 00:01:19;;;;;;;1.30;1.10;;;4.50;90.80;;;;;;5018201;28;20583;-83
2022/12/29 00:03:46;;;;;;;1.35;0.90;;;4.50;90.50;;;;;;5020819;28;20053;-83
2022/12/29 00:06:12;;;;;;;2.78;0.80;;;4.50;90.40;;;;;;5018984;28;20030;-84
2022/12/29 00:08:40;;;;;;;1.30;0.93;;;4.50;90.30;;;;;;5031644;28;20026;-82
2022/12/29 00:11:08;;;;;;;1.20;0.85;;;4.50;90.20;;;;;;5022221;28;20052;-83
2022/12/29 00:16:18;;;;;;;4.43;0.77;;;4.40;90.10;;;;;;5038336;28;20032;-83
2022/12/29 00:18:44;;;;;;;0.70;0.60;;;4.40;90.10;;;;;;5021535;28;20065;-83
2022/12/29 00:35:35;;;;;;;1.25;0.95;;;4.30;90.20;;;;;;5042458;28;20064;-83
2022/12/29 00:46:18;;;;;;;1.33;0.60;;;4.20;90.20;;;;;;5042220;28;20053;-83
2022/12/29 00:51:28;;;;;;;3.20;0.75;;;4.20;90.10;;;;;;5042022;28;20045;-83
2022/12/29 00:53:53;;;;;;;1.80;1.35;;;4.20;90.10;;;;;;5023677;28;20021;-82
2022/12/29 00:56:19;;;;;;;0.93;0.60;;;4.20;90.20;;;;;;5043777;28;20029;-83
2022/12/29 00:58:45;;;;;;;0.73;0.60;;;4.10;90.10;;;;;;5042678;28;20088;-83
2022/12/29 01:01:11;;;;;;;1.50;1.38;;;4.10;90.40;;;;;;5043745;28;20048;-82
2022/12/29 01:03:38;;;;;;;2.20;1.17;;;4.10;90.20;;;;;;5045945;28;20033;-83
2022/12/29 01:06:06;;;;;;;1.13;0.80;;;4.10;90.20;;;;;;5044061;28;20022;-83
2022/12/29 01:08:32;;;;;;;1.35;0.60;;;4.10;90.10;;;;;;5016126;28;20029;-84
2022/12/29 01:11:07;;;;;;;1.02;0.80;;;4.00;90.20;;;;;;5030932;28;20014;-84
2022/12/29 01:13:33;;;;;;;0.80;0.80;;;4.00;90.30;;;;;;5032005;28;20050;-84
2022/12/29 01:15:59;;;;;;;2.65;0.60;;;4.00;90.30;;;;;;5029841;28;20061;-82
2022/12/29 01:18:25;;;;;;;1.48;0.70;;;4.00;90.40;;;;;;5036398;28;20045;-82
2022/12/29 01:20:57;;;;;;;0.98;0.77;;;4.00;90.40;;;;;;5026777;28;20029;-83
2022/12/29 01:23:23;;;;;;;0.80;0.70;;;4.00;90.20;;;;;;5020608;28;20022;-82
2022/12/29 01:25:49;;;;;;;0.98;0.73;;;4.10;90.20;;;;;;5021608;28;20026;-82
2022/12/29 01:28:14;;;;;;;1.38;0.70;;;4.10;90.00;;;;;;5021572;28;20392;-82
2022/12/29 01:30:40;;;;;;;0.88;0.60;;;4.10;89.90;;;;;;5036161;28;20030;-80
2022/12/29 01:33:06;;;;;;;0.73;0.57;;;4.10;89.80;;;;;;5037826;28;20037;-81
2022/12/29 01:35:31;;;;;;;1.63;0.85;;;4.10;89.60;;;;;;5036610;28;20022;-81
2022/12/29 01:37:57;;;;;;;0.77;0.70;;;4.20;89.50;;;;;;5043547;28;20075;-81
2022/12/29 01:40:24;;;;;;;0.85;0.75;;;4.20;89.20;;;;;;5042607;28;20014;-81
2022/12/29 01:42:50;;;;;;;1.27;0.73;;;4.30;88.90;;;;;;5036062;28;20018;-81
2022/12/29 01:45:17;;;;;;;1.13;0.65;;;4.30;88.60;;;;;;5033753;28;20088;-83
2022/12/29 01:48:03;;;;;;;2.92;0.80;;;4.30;88.40;;;;;;5021797;28;20053;-83
2022/12/29 01:50:41;;;;;;;2.40;0.60;;;4.40;88.20;;;;;;5021640;28;20141;-82
2022/12/29 01:53:15;;;;;;;0.40;0.35;;;4.40;88.00;;;;;;5026361;28;20022;-82
2022/12/29 01:55:48;;;;;;;1.05;0.95;;;4.40;87.90;;;;;;5024418;28;20029;-83
2022/12/29 01:58:15;;;;;;;1.35;0.40;;;4.40;87.80;;;;;;5021732;28;20033;-81
2022/12/29 02:00:41;;;;;;;0.65;0.65;;;4.40;87.70;;;;;;5034126;28;20014;-81
2022/12/29 02:03:32;;;;;;;0.77;0.60;;;4.40;87.60;;;;;;5031002;28;20029;-83
2022/12/29 02:07:02;;;;;;;0.68;0.60;;;4.40;87.60;;;;;;5020335;28;20695;-82
2022/12/29 02:09:28;;;;;;;1.35;0.77;;;4.40;87.60;;;;;;4989335;28;20098;-83
2022/12/29 02:12:02;;;;;;;1.63;0.77;;;4.40;87.30;;;;;;5019063;28;20061;-83
2022/12/29 02:14:41;;;;;;;1.08;0.77;;;4.40;87.30;;;;;;5002776;28;20034;-83
2022/12/29 02:21:34;;;;;;;0.85;0.60;;;4.50;87.00;;;;;;5001148;28;20051;-82
2022/12/29 02:24:44;;;;;;;0.70;0.70;;;4.50;86.60;;;;;;5038102;28;20031;-82
2022/12/29 02:27:28;;;;;;;1.00;0.70;;;4.50;86.30;;;;;;4975588;28;20046;-83
2022/12/29 02:30:36;;;;;;;1.33;0.40;;;4.50;86.40;;;;;;4986329;28;20219;-84
2022/12/29 02:33:01;;;;;;;0.70;0.70;;;4.50;86.30;;;;;;5024967;28;20038;-83
2022/12/29 02:35:46;;;;;;;0.88;0.70;;;4.50;86.00;;;;;;5051433;28;20037;-82
2022/12/29 02:38:38;;;;;;;0.95;0.80;;;4.60;85.90;;;;;;5051287;28;20029;-83
2022/12/29 02:41:19;;;;;;;3.22;0.50;;;4.60;85.40;;;;;;5010153;28;20025;-84
2022/12/29 02:43:52;;;;;;;0.53;0.53;;;4.60;85.00;;;;;;5031946;28;20030;-81
2022/12/29 02:46:17;;;;;;;1.02;0.60;;;4.70;84.80;;;;;;5012278;28;20295;-81
2022/12/29 02:48:51;;;;;;;0.70;0.52;;;4.70;84.30;;;;;;5017492;28;20037;-81
2022/12/29 02:51:33;;;;;;;1.33;0.63;;;4.80;83.80;;;;;;5018558;28;20018;-80
2022/12/29 02:54:41;;;;;;;0.53;0.53;;;4.80;83.40;;;;;;5024825;28;20037;-83
2022/12/29 02:56:48;;;;;;;0.73;0.60;;;4.80;83.00;;;;;;5017108;28;20279;-81
2022/12/29 02:59:14;;;;;;;1.40;0.85;;;4.80;82.90;;;;;;5020391;28;20038;-84
2022/12/29 03:02:18;;;;;;;0.95;0.68;;;4.80;82.80;;;;;;5018448;28;20521;-83
2022/12/29 03:05:05;;;;;;;0.60;0.40;;;4.80;82.70;;;;;;5018348;28;20129;-83
2022/12/29 03:07:53;;;;;;;0.75;0.63;;;4.80;82.70;;;;;;5022954;28;20002;-83
2022/12/29 03:17:46;;;;;;;0.30;0.30;;;5.00;81.80;;;;;;4938416;29;20035;-83
2022/12/29 03:20:18;;;;;;;0.40;0.40;;;5.10;81.30;;;;;;4999893;28;20049;-83
2022/12/29 03:22:47;;;;;;;0.45;0.30;;;5.10;81.00;;;;;;5019619;28;20051;-81
2022/12/29 03:25:25;;;;;;;0.60;0.40;;;5.20;80.80;;;;;;5018722;28;20480;-83
2022/12/29 03:28:02;;;;;;;0.80;0.40;;;5.30;80.20;;;;;;5019500;28;20087;-82
2022/12/29 03:30:30;;;;;;;0.90;0.52;;;5.40;79.30;;;;;;5019611;28;20025;-82
2022/12/29 03:33:01;;;;;;;0.52;0.50;;;5.40;78.90;;;;;;5018685;28;20025;-84
2022/12/29 03:35:31;;;;;;;0.73;0.45;;;5.50;78.20;;;;;;5036145;28;20089;-83
2022/12/29 03:38:15;;;;;;;0.30;0.30;;;5.60;77.70;;;;;;5027853;28;20037;-83
2022/12/29 03:40:46;;;;;;;0.30;0.30;;;5.70;77.20;;;;;;5001259;28;20022;-84
2022/12/29 03:43:13;;;;;;;0.47;0.40;;;5.80;77.00;;;;;;4982289;28;20389;-84
2022/12/29 03:45:39;;;;;;;0.45;0.35;;;5.90;76.40;;;;;;5016068;28;20038;-84
2022/12/29 03:48:05;;;;;;;1.40;0.57;;;5.90;76.10;;;;;;5015368;28;20120;-83
2022/12/29 03:50:31;;;;;;;0.70;0.47;;;5.90;75.90;;;;;;4998772;28;20088;-82
2022/12/29 03:52:57;;;;;;;0.55;0.43;;;6.00;75.50;;;;;;4998153;28;20022;-83
2022/12/29 03:55:23;;;;;;;0.30;0.30;;;6.00;75.10;;;;;;5004769;28;20033;-81
2022/12/29 03:57:48;;;;;;;0.38;0.38;;;6.10;74.70;;;;;;5017868;28;20089;-82
2022/12/29 04:00:14;;;;;;;0.75;0.43;;;6.20;73.80;;;;;;5019048;28;20062;-83
2022/12/29 04:02:41;;;;;;;0.43;0.30;;;6.20;73.20;;;;;;4999402;28;20579;-84
2022/12/29 04:05:07;;;;;;;0.73;0.50;;;6.20;73.00;;;;;;5017176;28;20164;-84
2022/12/29 04:07:33;;;;;;;1.10;0.55;;;6.30;72.50;;;;;;5012284;28;20048;-82
2022/12/29 04:09:59;;;;;;;0.38;0.38;;;6.30;72.10;;;;;;5016712;28;20101;-83
2022/12/29 04:12:24;;;;;;;0.52;0.43;;;6.40;71.90;;;;;;5041987;28;20049;-82
2022/12/29 04:14:51;;;;;;;0.40;0.40;;;6.40;71.80;;;;;;5041276;28;20061;-82
2022/12/29 04:17:16;;;;;;;0.63;0.30;;;6.40;71.30;;;;;;5024897;28;20036;-83
2022/12/29 04:19:42;;;;;;;0.80;0.57;;;6.50;71.50;;;;;;5042037;28;20021;-83
2022/12/29 04:22:08;;;;;;;0.63;0.50;;;6.40;71.30;;;;;;5041937;28;20021;-81
2022/12/29 04:24:34;;;;;;;0.30;0.30;;;6.50;71.50;;;;;;5027331;28;20085;-81
2022/12/29 04:26:59;;;;;;;0.50;0.40;;;6.50;72.00;;;;;;5045453;28;20030;-83
2022/12/29 04:29:25;;;;;;;0.70;0.45;;;6.40;71.30;;;;;;5043381;28;20034;-83
2022/12/29 04:31:50;;;;;;;0.65;0.40;;;6.50;71.30;;;;;;5041438;28;20083;-83
2022/12/29 04:34:16;;;;;;;0.50;0.50;;;6.50;71.10;;;;;;5040841;28;20113;-83
2022/12/29 04:36:42;;;;;;;1.02;0.60;;;6.50;71.00;;;;;;5040380;28;20030;-82
2022/12/29 04:39:08;;;;;;;2.38;0.40;;;6.60;70.90;;;;;;5031041;28;20087;-84
2022/12/29 04:41:34;;;;;;;0.40;0.30;;;6.50;70.80;;;;;;5023235;28;20022;-83
2022/12/29 04:43:59;;;;;;;0.75;0.40;;;6.60;70.50;;;;;;5023048;28;20065;-83
2022/12/29 04:46:25;;;;;;;0.50;0.50;;;6.60;70.20;;;;;;5022868;28;20037;-83
2022/12/29 04:48:50;;;;;;;0.68;0.50;;;6.60;70.30;;;;;;5020376;28;20029;-82
2022/12/29 04:51:16;;;;;;;1.27;0.50;;;6.60;70.40;;;;;;5026085;28;20046;-81
2022/12/29 04:53:42;;;;;;;0.55;0.45;;;6.60;69.90;;;;;;5023764;28;20032;-84
2022/12/29 04:56:08;;;;;;;2.20;0.50;;;6.70;70.00;;;;;;5022086;28;20026;-82
2022/12/29 04:58:34;;;;;;;2.08;0.52;;;6.70;70.00;;;;;;5019482;28;20092;-84
2022/12/29 05:01:00;;;;;;;1.85;0.68;;;6.70;69.70;;;;;;5020015;28;20038;-83
2022/12/29 05:03:26;;;;;;;3.45;0.70;;;6.70;69.70;;;;;;5019292;28;20294;-82
2022/12/29 05:05:56;;;;;;;0.50;0.50;;;6.70;69.70;;;;;;5020499;28;20029;-81
2022/12/29 05:08:22;;;;;;;0.50;0.50;;;6.70;69.70;;;;;;5013138;28;20417;-83
2022/12/29 05:10:50;;;;;;;1.13;0.55;;;6.70;69.80;;;;;;5017574;28;20129;-83
2022/12/29 05:13:16;;;;;;;1.13;0.77;;;6.70;69.80;;;;;;5020623;28;20069;-83
2022/12/29 05:15:50;;;;;;;0.90;0.30;;;6.70;69.80;;;;;;5019827;28;20022;-83
2022/12/29 05:18:16;;;;;;;2.28;0.90;;;6.70;69.80;;;;;;5018428;28;20202;-82
2022/12/29 05:20:41;;;;;;;2.88;0.60;;;6.70;69.50;;;;;;5021114;28;20451;-82
2022/12/29 05:23:07;;;;;;;1.73;1.25;;;6.70;69.60;;;;;;5018401;28;20034;-83
2022/12/29 05:25:33;;;;;;;0.60;0.50;;;6.70;69.50;;;;;;5019390;28;20045;-84
2022/12/29 05:27:58;;;;;;;0.52;0.52;;;6.70;69.70;;;;;;5019135;28;20022;-84
2022/12/29 05:30:24;;;;;;;0.75;0.57;;;6.70;69.80;;;;;;5021830;28;20125;-84
2022/12/29 05:32:50;;;;;;;0.50;0.45;;;6.70;69.80;;;;;;5021553;28;20436;-84
2022/12/29 05:35:15;;;;;;;2.03;0.68;;;6.70;70.00;;;;;;5021740;28;20032;-82
2022/12/29 05:37:41;;;;;;;0.50;0.50;;;6.70;69.80;;;;;;5026498;28;20025;-84
2022/12/29 05:40:08;;;;;;;1.08;0.40;;;6.70;69.90;;;;;;5025892;28;20453;-83
2022/12/29 05:42:33;;;;;;;0.30;0.30;;;6.70;70.00;;;;;;5049394;28;20037;-84
2022/12/29 05:44:59;;;;;;;0.95;0.75;;;6.70;70.10;;;;;;5053342;28;20021;-82
2022/12/29 05:47:24;;;;;;;0.75;0.60;;;6.70;70.40;;;;;;5058194;28;20033;-81
2022/12/29 05:49:51;;;;;;;0.47;0.40;;;6.70;71.20;;;;;;5041686;28;20062;-82
2022/12/29 05:52:17;;;;;;;0.30;0.30;;;6.60;70.60;;;;;;5058483;28;20033;-80
2022/12/29 05:54:42;;;;;;;0.38;0.38;;;6.60;70.70;;;;;;5046686;28;20037;-83
2022/12/29 05:57:08;;;;;;;0.65;0.50;;;6.60;70.70;;;;;;5023210;28;20029;-82
2022/12/29 05:59:34;;;;;;;1.20;0.52;;;6.60;70.80;;;;;;5040973;28;20025;-82
2022/12/29 06:02:00;;;;;;;0.85;0.52;;;6.60;70.90;;;;;;5041170;28;20030;-83
2022/12/29 06:04:26;;;;;;;0.95;0.63;;;6.50;70.90;;;;;;5043587;28;20392;-82
2022/12/29 06:06:52;;;;;;;1.60;0.60;;;6.50;71.10;;;;;;5041141;28;20033;-84
2022/12/29 06:09:17;;;;;;;0.50;0.30;;;6.40;71.20;;;;;;5017860;28;20022;-83
2022/12/29 06:11:43;;;;;;;0.50;0.50;;;6.40;71.30;;;;;;5019175;28;20026;-82
2022/12/29 06:14:09;;;;;;;0.85;0.40;;;6.40;71.50;;;;;;5018602;28;20069;-82
2022/12/29 06:16:35;;;;;;;1.63;0.57;;;6.40;71.60;;;;;;5019006;28;20034;-82
2022/12/29 06:19:01;;;;;;;0.95;0.80;;;6.40;71.70;;;;;;5022808;28;20037;-83
2022/12/29 06:21:27;;;;;;;1.63;1.15;;;6.50;71.80;;;;;;5021759;28;20022;-83
2022/12/29 06:23:52;;;;;;;1.13;0.82;;;6.50;71.80;;;;;;5023876;28;20050;-80
2022/12/29 06:26:18;;;;;;;1.25;1.00;;;6.50;71.50;;;;;;5028210;28;20018;-81
2022/12/29 06:28:44;;;;;;;1.27;0.60;;;6.50;71.50;;;;;;5023425;28;20018;-82
2022/12/29 06:31:10;;;;;;;1.23;0.60;;;6.50;71.60;;;;;;5020302;28;20026;-83
2022/12/29 06:33:37;;;;;;;0.70;0.60;;;6.50;71.60;;;;;;5025683;28;20073;-80
2022/12/29 06:36:03;;;;;;;0.98;0.60;;;6.50;71.60;;;;;;5048892;28;20026;-82
2022/12/29 06:38:28;;;;;;;0.50;0.50;;;6.40;71.60;;;;;;5019432;28;20321;-82
2022/12/29 06:40:54;;;;;;;0.65;0.55;;;6.40;71.70;;;;;;5013036;28;20070;-83
2022/12/29 06:43:20;;;;;;;0.85;0.55;;;6.40;71.90;;;;;;5024458;28;20160;-82
2022/12/29 06:45:45;;;;;;;0.85;0.50;;;6.40;72.00;;;;;;5004873;28;20053;-81
2022/12/29 06:48:11;;;;;;;1.10;0.68;;;6.40;72.00;;;;;;5003906;28;20378;-81
2022/12/29 06:50:37;;;;;;;1.35;0.70;;;6.40;72.20;;;;;;5004191;28;20045;-85
2022/12/29 06:53:02;;;;;;;0.70;0.70;;;6.40;72.20;;;;;;5004412;28;20030;-82
2022/12/29 06:55:28;;;;;;;0.63;0.60;;;6.40;72.20;;;;;;5002116;28;20057;-81
2022/12/29 06:57:56;;;;;;;1.65;0.90;;;6.40;72.30;;;;;;5003185;28;20133;-83
2022/12/29 07:00:22;;;;;;;0.82;0.68;;;6.40;72.40;;;;;;5003870;28;20086;-82
2022/12/29 07:02:48;;;;;;;3.97;0.90;;;6.40;72.40;;;;;;5020324;28;20017;-84
2022/12/29 07:05:13;;;;;;;1.08;0.73;;;6.40;72.30;;;;;;5020599;28;20037;-81
2022/12/29 07:07:39;;;;;;;0.60;0.60;;;6.40;72.40;;;;;;5015458;28;20021;-82
2022/12/29 07:10:05;;;;;;;3.22;0.70;;;6.40;72.40;;;;;;5021122;28;20084;-82
2022/12/29 07:12:30;;;;;;;1.38;0.68;;;6.40;72.40;;;;;;5019926;28;20046;-83
2022/12/29 07:14:56;;;;;;;1.02;0.70;;;6.40;72.50;;;;;;5020967;28;20053;-82
2022/12/29 07:17:22;;;;;;;1.13;0.60;;;6.40;72.50;;;;;;5020030;28;20076;-82
2022/12/29 07:19:48;;;;;;;0.90;0.70;;;6.40;72.40;;;;;;5020296;28;20489;-81
2022/12/29 07:22:13;;;;;;;0.50;0.50;;;6.40;72.40;;;;;;5021580;28;20034;-83
2022/12/29 07:24:39;;;;;;;0.85;0.70;;;6.40;72.30;;;;;;5021674;28;20370;-83
2022/12/29 07:27:05;;;;;;;1.02;0.70;;;6.40;72.10;;;;;;5035013;28;20033;-81
2022/12/29 07:29:31;;;;;;;2.03;0.65;;;6.50;72.10;;;;;;5036410;28;20018;-81
2022/12/29 07:31:56;;;;;;;0.88;0.88;;;6.50;72.00;;;;;;5035109;28;20057;-81
2022/12/29 07:35:09;;;;;;;1.25;0.95;;;6.50;71.90;;;;;;5034730;28;20061;-79
2022/12/29 07:37:39;;;;;;;0.80;0.80;;;6.50;71.80;;;;;;5024164;28;20045;-79
2022/12/29 07:40:14;;;;;;;0.98;0.73;;;6.50;71.80;;;;;;5018948;28;20053;-80
2022/12/29 07:42:40;;;;;;;0.63;0.63;;;6.40;72.00;;;;;;5013069;28;20038;-83
2022/12/29 07:45:12;;;;;;;1.48;0.60;;;6.40;72.20;;;;;;5025985;28;20489;-83
2022/12/29 07:47:41;;;;;;;0.80;0.80;;;6.30;73.00;;;;;;5040548;28;20018;-81
2022/12/29 07:50:07;;;;;;;0.90;0.80;;;6.40;72.50;;;;;;5035195;28;20034;-82
2022/12/29 07:52:32;;;;;;;0.70;0.60;;;6.40;72.70;;;;;;5037709;28;20052;-80
2022/12/29 07:54:58;;;;;;;1.13;0.63;;;6.40;73.40;;;;;;5035541;28;20045;-83
2022/12/29 07:57:25;;;;;;;1.98;0.93;;;6.40;72.70;;;;;;5032775;28;20037;-82
2022/12/29 08:00:00;;;;;;;1.13;0.75;;;6.50;72.70;;;;;;5026003;28;20137;-82
2022/12/29 08:02:36;;;;;;;0.73;0.50;;;6.60;72.40;;;;;;5006672;28;20167;-82
2022/12/29 08:05:02;;;;;;;2.05;0.70;;;6.70;72.20;;;;;;5003229;28;20107;-83
2022/12/29 08:07:28;;;;;;;1.15;0.70;;;6.80;71.90;;;;;;5025284;28;20014;-83
2022/12/29 08:09:53;;;;;;;1.65;0.85;;;6.90;71.40;;;;;;5029334;28;20033;-84
2022/12/29 08:12:19;;;;;;;1.00;0.90;;;7.00;71.00;;;;;;5019720;28;20025;-83
2022/12/29 08:14:45;;;;;;;1.17;0.90;;;7.00;70.40;;;;;;5019425;28;20074;-82
2022/12/29 08:17:10;;;;;;;3.10;1.00;;;7.10;70.10;;;;;;5020401;28;20030;-83
2022/12/29 08:19:37;;;;;;;1.70;1.17;;;7.10;69.60;;;;;;5019683;28;20041;-83
2022/12/29 08:22:02;;;;;;;2.42;1.00;;;7.10;69.20;;;;;;5021838;28;20026;-84
2022/12/29 08:24:28;;;;;;;1.60;1.20;;;7.10;68.90;;;;;;5021316;28;20064;-83
2022/12/29 08:26:54;;;;;;;1.92;1.00;;;7.10;68.70;;;;;;5020658;28;20026;-84
2022/12/29 08:29:21;;;;;;;1.55;0.90;;;7.10;68.90;;;;;;5020515;28;20054;-82
2022/12/29 08:31:47;;;;;;;1.23;0.75;;;7.10;68.60;;;;;;5020655;28;20022;-83
2022/12/29 08:34:12;;;;;;;1.77;0.82;;;7.20;68.50;;;;;;5022249;28;20119;-82
2022/12/29 08:36:43;;;;;;;2.63;0.90;;;7.30;68.40;;;;;;5024537;28;20110;-84
2022/12/29 08:39:09;;;;;;;1.83;0.70;;;7.30;68.30;;;;;;5017170;28;20360;-82
2022/12/29 08:41:35;;;;;;;0.70;0.70;;;7.30;68.30;;;;;;5042585;28;20053;-82
2022/12/29 08:44:07;;;;;;;1.52;0.80;;;7.40;68.20;;;;;;5007729;28;20033;-81
2022/12/29 08:46:33;;;;;;;0.90;0.68;;;7.60;67.90;;;;;;5024455;28;20164;-83
2022/12/29 08:48:59;;;;;;;1.77;0.75;;;7.90;67.40;;;;;;5042223;28;20021;-82
2022/12/29 08:52:08;;;;;;;1.58;0.55;;;8.20;66.60;;;;;;5027001;28;20097;-82
2022/12/29 08:54:33;;;;;;;1.02;0.93;;;8.40;65.30;;;;;;5028337;28;20177;-83
2022/12/29 08:57:37;;;;;;;1.70;0.70;;;8.50;64.40;;;;;;5029732;28;20037;-84
2022/12/29 09:00:11;;;;;;;3.85;1.02;;;8.60;63.70;;;;;;5024532;28;20029;-82
2022/12/29 09:02:37;;;;;;;1.55;1.05;;;8.70;62.70;;;;;;5053658;28;20013;-80
2022/12/29 09:05:03;;;;;;;0.95;0.85;;;8.70;62.60;;;;;;5037262;28;20056;-80
2022/12/29 09:07:28;;;;;;;0.93;0.60;;;8.70;62.50;;;;;;5045036;28;20013;-82
2022/12/29 09:09:54;;;;;;;3.08;1.30;;;8.70;62.50;;;;;;5043513;28;20026;-84
2022/12/29 09:12:20;;;;;;;0.90;0.77;;;8.70;62.20;;;;;;5035331;28;20021;-82
2022/12/29 09:14:48;;;;;;;0.70;0.50;;;8.80;62.20;;;;;;5024060;28;20536;-83
2022/12/29 09:19:58;;;;;;;1.90;1.08;;;9.00;61.20;;;;;;5034028;28;20067;-80
2022/12/29 09:22:24;;;;;;;1.48;1.10;;;9.10;60.80;;;;;;5037437;28;20038;-80
2022/12/29 09:24:49;;;;;;;1.85;1.20;;;9.10;60.70;;;;;;5035648;28;20080;-82
2022/12/29 09:27:15;;;;;;;2.45;1.85;;;9.10;60.40;;;;;;5026893;28;20500;-83
2022/12/29 09:29:40;;;;;;;3.80;2.60;;;9.20;60.40;;;;;;5022284;28;20022;-81
2022/12/29 09:32:07;;;;;;;1.98;1.20;;;9.20;60.40;;;;;;5023372;28;20536;-83
2022/12/29 09:34:32;;;;;;;1.52;1.42;;;9.20;60.00;;;;;;5026510;28;20018;-83
2022/12/29 09:36:58;;;;;;;1.88;1.05;;;9.30;60.00;;;;;;5030877;28;20460;-83
2022/12/29 09:39:24;;;;;;;0.98;0.85;;;9.50;59.80;;;;;;5043421;28;20048;-82
2022/12/29 09:42:10;;;;;;;0.93;0.65;;;9.60;59.00;;;;;;5037378;28;20049;-80
2022/12/29 09:44:54;;;;;;;1.65;1.00;;;9.80;58.90;;;;;;5058803;28;20028;-80
2022/12/29 09:47:22;;;;;;;1.13;0.80;;;10.10;58.50;;;;;;5058888;28;20044;-80
2022/12/29 09:49:54;;;;;;;0.95;0.63;;;10.30;57.80;;;;;;5058347;28;20025;-81
2022/12/29 09:52:29;;;;;;;;;;;10.40;57.50;;;;;;5025828;28;20090;-82
2022/12/29 09:54:57;;;;;;;2.08;0.90;;;10.50;56.60;;;;;;5022028;28;20303;-83
2022/12/29 09:57:47;;;;;;;1.15;0.80;;;10.40;56.30;;;;;;5041346;28;20060;-84
2022/12/29 10:00:16;;;;;;;1.15;0.98;;;10.30;56.30;;;;;;5044420;28;20041;-84
2022/12/29 10:03:10;;;;;;;1.58;0.90;;;10.20;56.70;;;;;;5028982;28;20438;-83
2022/12/29 10:06:14;;;;;;;1.75;0.88;;;10.20;56.20;;;;;;5044329;28;20532;-83
2022/12/29 10:08:59;;;;;;;1.95;0.77;;;10.20;56.20;;;;;;5034486;28;20021;-83
2022/12/29 10:11:59;;;;;;;3.25;0.93;;;10.10;56.00;;;;;;5023456;28;20026;-83
2022/12/29 10:14:52;;;;;;;1.52;0.90;;;10.10;56.30;;;;;;5020968;28;20468;-84
2022/12/29 10:17:25;;;;;;;2.30;0.80;;;10.20;56.50;;;;;;5021741;28;20030;-83
2022/12/29 10:19:53;;;;;;;;;;;10.30;56.50;;;;;;5022526;28;20042;-83
2022/12/29 10:22:53;;;;;;;0.68;0.68;;;10.30;56.40;;;;;;5018970;28;19910;-85
2022/12/29 10:25:23;;;;;;;1.20;1.02;;;10.30;56.50;;;;;;5018840;28;20025;-84
2022/12/29 10:27:50;;;;;;;0.93;0.70;;;10.40;56.10;;;;;;5020979;28;20062;-83
2022/12/29 10:30:16;;;;;;;0.80;0.75;;;10.40;56.10;;;;;;5018717;28;20033;-83
2022/12/29 10:32:53;;;;;;;0.68;0.60;;;10.40;55.90;;;;;;5018340;28;20029;-84
2022/12/29 10:35:22;;;;;;;1.25;0.80;;;10.50;56.00;;;;;;5017865;28;20057;-84
2022/12/29 10:38:19;;;;;;;1.60;1.10;;;10.50;55.90;;;;;;5024090;28;20022;-84
2022/12/29 10:41:16;;;;;;;0.75;0.68;;;10.50;55.60;;;;;;5005739;28;20121;-82
2022/12/29 10:43:56;;;;;;;0.95;0.90;;;10.50;55.70;;;;;;5018701;28;20022;-84
2022/12/29 10:46:28;;;;;;;1.55;1.10;;;10.50;55.50;;;;;;5001859;28;20036;-84
2022/12/29 10:48:54;;;;;;;1.08;0.98;;;10.50;55.50;;;;;;5019512;28;20033;-83
2022/12/29 10:51:30;;;;;;;1.77;0.95;;;10.50;55.50;;;;;;5020664;28;20397;-84
2022/12/29 10:54:00;;;;;;;0.73;0.70;;;10.60;55.60;;;;;;5018572;28;20026;-83
2022/12/29 10:56:44;;;;;;;0.95;0.80;;;10.60;55.70;;;;;;5001736;28;20034;-85
2022/12/29 10:59:13;;;;;;;1.60;0.90;;;10.60;55.60;;;;;;5021184;28;20052;-84
2022/12/29 11:02:11;;;;;;;1.25;1.10;;;10.60;55.60;;;;;;5019653;28;20018;-84
2022/12/29 11:04:48;;;;;;;1.08;0.70;;;10.60;55.60;;;;;;4950949;28;20119;-84
2022/12/29 11:07:17;;;;;;;1.08;0.70;;;10.70;55.60;;;;;;5007939;28;20036;-84
2022/12/29 11:09:43;;;;;;;1.00;0.80;;;10.80;55.40;;;;;;5031108;28;20032;-84
2022/12/29 11:12:30;;;;;;;1.60;1.00;;;11.00;55.30;;;;;;5040009;28;20025;-82
2022/12/29 11:15:15;;;;;;;1.70;1.10;;;11.20;55.20;;;;;;5040862;28;20025;-84
2022/12/29 11:18:10;;;;;;;3.00;1.00;;;11.30;54.60;;;;;;5039277;28;20028;-84
2022/12/29 11:20:38;;;;;;;2.55;1.92;;;11.40;54.20;;;;;;5020835;28;20105;-84
2022/12/29 11:23:20;;;;;;;1.70;1.38;;;11.60;53.30;;;;;;5038004;28;20044;-84
2022/12/29 11:25:51;;;;;;;1.15;0.80;;;11.80;52.80;;;;;;5020551;28;20022;-84
2022/12/29 11:28:16;;;;;;;4.05;1.10;;;12.10;52.30;;;;;;5038465;28;20034;-86
2022/12/29 11:30:43;;;;;;;2.50;0.98;;;12.30;51.70;;;;;;5021298;28;20075;-83
2022/12/29 11:33:09;;;;;;;1.33;1.17;;;12.50;51.20;;;;;;5026583;28;20031;-82
2022/12/29 11:35:40;;;;;;;1.33;1.02;;;12.60;50.90;;;;;;5053100;28;20033;-83
2022/12/29 11:38:16;;;;;;;1.50;0.65;;;12.60;50.80;;;;;;5055541;28;20072;-83
2022/12/29 11:40:41;;;;;;;1.50;0.82;;;12.70;50.70;;;;;;5024539;28;20069;-84
2022/12/29 11:43:35;;;;;;;2.72;0.88;;;12.60;50.30;;;;;;5020424;28;20032;-85
2022/12/29 11:46:05;;;;;;;0.80;0.80;;;12.60;50.40;;;;;;5021116;28;20029;-85
2022/12/29 11:48:41;;;;;;;1.17;0.80;;;12.60;50.50;;;;;;5020780;28;20040;-85
2022/12/29 11:51:07;;;;;;;2.83;0.80;;;12.50;50.60;;;;;;5021355;28;20171;-83
2022/12/29 11:53:46;;;;;;;2.45;0.90;;;12.40;50.50;;;;;;5039394;28;20028;-85
2022/12/29 11:56:35;;;;;;;1.50;0.90;;;12.30;50.70;;;;;;5021106;28;20179;-83
2022/12/29 11:59:38;;;;;;;1.13;0.90;;;12.20;51.00;;;;;;5019916;28;20036;-84
2022/12/29 12:02:26;;;;;;;2.08;0.73;;;12.20;51.00;;;;;;5021347;28;20017;-85
2022/12/29 12:05:01;;;;;;;0.80;0.80;;;12.30;50.90;;;;;;5031736;28;20022;-81
2022/12/29 12:07:44;;;;;;;2.47;1.08;;;12.20;50.90;;;;;;5022759;28;20037;-81
2022/12/29 12:10:19;;;;;;;1.67;0.98;;;12.20;50.80;;;;;;5030912;28;20053;-82
2022/12/29 12:13:21;;;;;;;2.10;0.88;;;12.20;50.80;;;;;;5024788;28;20033;-85
2022/12/29 12:16:14;;;;;;;1.60;0.80;;;12.20;51.00;;;;;;5017620;28;20061;-86
2022/12/29 12:18:46;;;;;;;2.45;1.00;;;12.20;50.90;;;;;;5019145;28;20077;-85
2022/12/29 12:21:27;;;;;;;1.40;1.00;;;12.20;50.50;;;;;;5017227;28;20030;-85
2022/12/29 12:24:28;;;;;;;1.55;1.20;;;12.20;50.50;;;;;;5019125;28;20072;-84
2022/12/29 12:27:12;;;;;;;1.17;0.75;;;12.20;50.40;;;;;;5004372;28;20030;-85
2022/12/29 12:29:43;;;;;;;2.42;0.60;;;12.20;50.70;;;;;;5021654;28;20022;-85
2022/12/29 12:32:22;;;;;;;0.93;0.70;;;12.30;50.80;;;;;;5021893;28;20018;-86
2022/12/29 12:34:48;;;;;;;0.95;0.85;;;12.40;50.30;;;;;;5020779;28;20025;-84
2022/12/29 12:37:47;;;;;;;2.95;1.02;;;12.50;50.50;;;;;;5031624;28;20032;-85
2022/12/29 12:40:32;;;;;;;1.88;1.08;;;12.50;50.30;;;;;;5013901;28;20022;-85
2022/12/29 12:43:00;;;;;;;0.70;0.70;;;12.60;50.40;;;;;;5008345;28;20113;-83
2022/12/29 12:46:00;;;;;;;2.15;1.27;;;12.60;50.60;;;;;;5022684;28;20117;-84
2022/12/29 12:48:49;;;;;;;1.15;0.80;;;12.70;50.70;;;;;;5022883;28;20041;-84
2022/12/29 12:51:46;;;;;;;1.30;1.13;;;12.80;50.70;;;;;;5006381;28;20029;-85
2022/12/29 12:54:53;;;;;;;2.78;1.00;;;12.80;51.50;;;;;;5009039;28;20105;-81
2022/12/29 12:57:28;;;;;;;1.48;1.23;;;12.80;52.40;;;;;;5020577;28;20034;-83
2022/12/29 13:00:08;;;;;;;1.60;1.20;;;12.80;52.80;;;;;;5029072;28;20002;-85
2022/12/29 13:03:05;;;;;;;2.45;1.42;;;12.80;53.30;;;;;;5009053;28;20026;-85
2022/12/29 13:05:35;;;;;;;3.65;1.52;;;12.80;53.70;;;;;;5038198;28;20013;-82
2022/12/29 13:08:35;;;;;;;1.45;0.95;;;12.80;54.20;;;;;;5028443;28;20041;-82
2022/12/29 13:11:20;;;;;;;2.70;1.00;;;12.70;54.40;;;;;;5039772;28;20093;-82
2022/12/29 13:13:57;;;;;;;2.85;1.17;;;12.70;54.50;;;;;;5057613;28;20009;-83
2022/12/29 13:16:26;;;;;;;5.15;1.35;;;12.70;54.70;;;;;;5056319;28;20072;-80
2022/12/29 13:19:19;;;;;;;6.45;1.23;;;12.70;54.80;;;;;;5058770;28;20029;-80
2022/12/29 13:21:44;;;;;;;;;;;12.70;54.70;;;;;;5041489;28;20033;-80
2022/12/29 13:24:24;;;;;;;1.38;0.52;;;12.60;54.80;;;;;;5041069;28;19932;-81
2022/12/29 13:27:00;;;;;;;4.20;1.10;;;12.60;54.90;;;;;;5040831;28;20006;-82
2022/12/29 13:29:50;;;;;;;1.63;0.93;;;12.60;54.90;;;;;;5041273;28;20097;-81
2022/12/29 13:32:31;;;;;;;1.10;1.00;;;12.60;54.90;;;;;;5040535;28;20025;-82
2022/12/29 13:35:07;;;;;;;1.98;1.13;;;12.60;55.30;;;;;;5040981;28;20085;-83
2022/12/29 13:37:40;;;;;;;1.80;0.70;;;12.60;55.30;;;;;;5036774;28;20036;-82
2022/12/29 13:40:19;;;;;;;1.73;1.15;;;12.60;55.50;;;;;;5021500;28;20061;-85
2022/12/29 13:42:46;;;;;;;1.27;0.80;;;12.50;55.80;;;;;;5023869;28;20042;-85
2022/12/29 13:45:18;;;;;;;0.90;0.80;;;12.40;56.00;;;;;;5020233;28;20164;-85
2022/12/29 13:48:05;;;;;;;1.15;0.90;;;12.40;56.40;;;;;;5020663;28;20026;-81
2022/12/29 13:50:36;;;;;;;3.13;1.10;;;12.30;56.80;;;;;;5024466;28;20026;-84
2022/12/29 13:53:30;;;;;;;2.05;1.17;;;12.30;57.00;;;;;;5024249;28;20076;-84
2022/12/29 13:56:00;;;;;;;1.67;1.35;;;12.30;57.40;;;;;;5024501;28;20100;-85
2022/12/29 13:58:47;;;;;;;2.10;1.23;;;12.30;57.60;;;;;;5021720;28;20536;-83
2022/12/29 14:01:35;;;;;;;2.63;1.80;;;12.30;58.00;;;;;;5022763;28;20026;-84
2022/12/29 14:04:09;;;;;;;2.90;1.80;;;12.20;58.70;;;;;;5020909;28;20037;-82
2022/12/29 14:06:40;;;;;;;1.65;1.23;;;12.20;59.00;;;;;;5021787;28;20079;-83